Time;durP1;ratioP1;P1;durP2;ratioP2;P2;SDS_P1;SDS_P2;PMS_P1;PMS_P2;Temp;Humidity;BMP_temperature;BMP_pressure;BME280_temperature;BME280_humidity;BME280_pressure;Samples;Min_cycle;Max_cycle;Signal;HPM_P1;HPM_P2
2023/08/17 00:02:10;;;;;;;10.00;8.80;;;;;;;24.19;68.76;100762.15;102550;278;105552;-55
2023/08/17 00:04:48;;;;;;;11.60;9.50;;;;;;;24.15;68.93;100765.27;102723;276;113869;-55
2023/08/17 00:07:30;;;;;;;11.50;8.90;;;;;;;24.15;68.93;100771.96;102764;276;97041;-53
2023/08/17 00:10:11;;;;;;;10.00;9.00;;;;;;;24.09;69.17;100772.14;102774;276;97492;-53
2023/08/17 00:12:50;;;;;;;10.30;9.40;;;;;;;24.07;69.33;100771.95;102782;276;120249;-55
2023/08/17 00:15:34;;;;;;;10.40;9.10;;;;;;;24.03;69.45;100769.83;102725;276;106213;-54
2023/08/17 00:18:11;;;;;;;;;;;;;;;24.01;69.73;100769.72;102773;276;114179;-54
2023/08/17 00:20:48;;;;;;;9.80;8.60;;;;;;;23.96;70.01;100775.09;102758;276;96731;-54
2023/08/17 00:23:27;;;;;;;11.00;9.20;;;;;;;23.90;70.31;100773.91;102838;276;98158;-57
2023/08/17 00:26:08;;;;;;;10.10;9.00;;;;;;;23.88;70.59;100772.62;102789;276;120718;-54
2023/08/17 00:28:49;;;;;;;10.50;8.90;;;;;;;23.86;70.72;100773.98;102755;276;103484;-53
2023/08/17 00:31:26;;;;;;;8.90;8.00;;;;;;;23.84;71.03;100773.45;102725;276;115152;-55
2023/08/17 00:34:05;;;;;;;10.00;8.20;;;;;;;23.81;71.27;100772.70;102764;276;96665;-55
2023/08/17 00:36:45;;;;;;;11.30;9.50;;;;;;;23.79;71.44;100776.70;102782;276;97975;-55
2023/08/17 00:39:21;;;;;;;10.00;8.50;;;;;;;23.77;71.52;100769.30;102763;276;120807;-55
2023/08/17 00:42:07;;;;;;;14.10;9.00;;;;;;;23.77;71.59;100769.48;102823;276;105929;-56
2023/08/17 00:44:47;;;;;;;11.00;9.10;;;;;;;23.75;71.80;100770.13;102853;276;113918;-57
2023/08/17 00:47:26;;;;;;;11.10;8.90;;;;;;;23.73;71.92;100771.78;102853;276;95875;-55
2023/08/17 00:50:06;;;;;;;11.90;9.50;;;;;;;23.70;71.85;100773.73;102783;276;96659;-55
2023/08/17 00:52:46;;;;;;;10.10;9.00;;;;;;;23.69;72.02;100771.46;102784;276;120724;-57
2023/08/17 00:55:23;;;;;;;9.40;8.50;;;;;;;23.67;72.19;100775.65;102879;276;104784;-56
2023/08/17 00:58:01;;;;;;;10.60;8.80;;;;;;;23.69;72.24;100779.80;102860;276;113663;-53
2023/08/17 01:00:37;;;;;;;10.90;9.30;;;;;;;23.70;72.37;100784.50;102783;276;94628;-52
2023/08/17 01:03:16;;;;;;;10.10;8.40;;;;;;;23.70;72.39;100784.50;102837;275;98192;-56
2023/08/17 01:05:55;;;;;;;9.40;8.40;;;;;;;23.70;72.57;100783.67;102760;276;119056;-57
2023/08/17 01:08:36;;;;;;;10.40;9.00;;;;;;;23.68;72.64;100780.29;102806;276;106076;-52
2023/08/17 01:11:23;;;;;;;9.50;8.40;;;;;;;23.63;72.87;100780.96;102802;276;115756;-54
2023/08/17 01:14:06;;;;;;;9.80;8.60;;;;;;;23.60;72.87;100778.13;102793;276;97329;-54
2023/08/17 01:16:49;;;;;;;11.10;9.70;;;;;;;23.60;72.94;100778.69;102817;276;97983;-55
2023/08/17 01:19:28;;;;;;;10.70;9.60;;;;;;;23.63;72.99;100782.07;102747;276;120285;-54
2023/08/17 01:22:12;;;;;;;10.50;9.40;;;;;;;23.61;73.00;100782.22;102790;276;105285;-55
2023/08/17 01:24:57;;;;;;;11.00;9.90;;;;;;;23.59;73.40;100777.48;102740;276;114158;-54
2023/08/17 01:27:43;;;;;;;10.70;9.10;;;;;;;23.60;73.30;100776.36;102818;276;96000;-54
2023/08/17 01:30:22;;;;;;;10.50;9.50;;;;;;;23.60;73.40;100775.38;102811;276;97697;-55
2023/08/17 01:33:05;;;;;;;13.30;9.40;;;;;;;23.62;73.38;100772.70;102773;276;119172;-55
2023/08/17 01:35:56;;;;;;;11.70;9.60;;;;;;;23.60;73.38;100775.17;102803;275;105405;-55
2023/08/17 01:38:34;;;;;;;10.50;9.40;;;;;;;23.60;73.50;100773.50;102771;276;114228;-55
2023/08/17 01:41:15;;;;;;;10.60;9.60;;;;;;;23.58;73.56;100767.15;102799;276;96118;-56
2023/08/17 01:43:54;;;;;;;10.80;9.80;;;;;;;23.53;73.68;100760.95;102760;276;97027;-57
2023/08/17 01:46:41;;;;;;;10.90;9.80;;;;;;;23.52;73.77;100757.46;102782;276;120655;-53
2023/08/17 01:49:20;;;;;;;11.80;9.90;;;;;;;23.51;73.76;100761.69;102774;276;105176;-53
2023/08/17 01:51:57;;;;;;;11.70;10.20;;;;;;;23.49;74.09;100766.98;102751;276;114704;-54
2023/08/17 01:54:35;;;;;;;10.90;9.60;;;;;;;23.47;74.17;100768.19;102805;276;95995;-54
2023/08/17 01:57:14;;;;;;;10.60;9.60;;;;;;;23.44;74.15;100772.58;102837;276;97163;-53
2023/08/17 01:59:53;;;;;;;11.30;10.00;;;;;;;23.42;74.13;100773.16;102809;276;120039;-53
2023/08/17 02:02:32;;;;;;;11.80;10.70;;;;;;;23.41;74.32;100769.23;102816;276;104422;-53
2023/08/17 02:05:09;;;;;;;11.70;10.60;;;;;;;23.43;74.31;100776.92;102846;276;113963;-52
2023/08/17 02:07:47;;;;;;;13.70;11.40;;;;;;;23.47;74.36;100779.26;102821;276;92197;-54
2023/08/17 02:10:31;;;;;;;12.80;11.60;;;;;;;23.46;74.37;100779.43;102826;276;97652;-55
2023/08/17 02:13:07;;;;;;;12.90;11.60;;;;;;;23.46;74.47;100777.44;102678;276;120192;-57
2023/08/17 02:15:51;;;;;;;12.80;11.30;;;;;;;23.43;74.39;100765.12;102887;276;105412;-56
2023/08/17 02:18:31;;;;;;;12.40;11.20;;;;;;;23.44;74.41;100761.42;102779;276;114992;-55
2023/08/17 02:21:10;;;;;;;13.40;11.60;;;;;;;23.44;74.33;100760.33;102803;276;96172;-56
2023/08/17 02:23:48;;;;;;;13.90;12.10;;;;;;;23.45;74.31;100763.42;102857;276;98161;-57
2023/08/17 02:26:24;;;;;;;16.10;12.00;;;;;;;23.46;74.24;100762.59;102869;276;121124;-53
2023/08/17 02:29:03;;;;;;;14.20;12.90;;;;;;;23.49;74.30;100762.79;102799;276;105621;-53
2023/08/17 02:31:42;;;;;;;14.10;11.70;;;;;;;23.50;74.17;100760.41;102811;276;115024;-55
2023/08/17 02:34:23;;;;;;;13.60;12.20;;;;;;;23.51;74.24;100768.24;102793;276;94707;-55
2023/08/17 02:37:09;;;;;;;14.30;12.70;;;;;;;23.54;74.24;100763.30;102844;276;98054;-55
2023/08/17 02:39:49;;;;;;;14.10;12.60;;;;;;;23.57;74.28;100764.71;102785;276;120574;-55
2023/08/17 02:42:33;;;;;;;14.40;13.00;;;;;;;23.60;74.20;100768.04;102572;276;104910;-56
2023/08/17 02:45:10;;;;;;;14.40;13.10;;;;;;;23.61;74.21;100767.66;102818;276;114801;-56
2023/08/17 02:47:45;;;;;;;14.30;11.90;;;;;;;23.62;74.08;100765.02;102838;276;96220;-56
2023/08/17 02:50:28;;;;;;;16.70;13.00;;;;;;;23.63;74.03;100753.73;102538;276;98201;-56
2023/08/17 02:53:08;;;;;;;13.70;12.20;;;;;;;23.62;73.95;100749.96;102855;276;120595;-56
2023/08/17 02:55:44;;;;;;;14.60;12.20;;;;;;;23.64;73.80;100753.52;102844;276;104773;-57
2023/08/17 02:58:24;;;;;;;13.30;12.00;;;;;;;23.67;73.62;100750.98;102778;276;114346;-55
2023/08/17 03:01:05;;;;;;;16.00;13.20;;;;;;;23.70;73.42;100760.88;102768;276;92920;-54
2023/08/17 03:03:43;;;;;;;13.70;12.50;;;;;;;23.72;73.28;100764.88;102802;276;98143;-55
2023/08/17 03:06:23;;;;;;;14.00;12.60;;;;;;;23.70;73.27;100766.90;102761;276;119776;-53
2023/08/17 03:08:59;;;;;;;14.50;12.00;;;;;;;23.67;73.34;100776.20;102795;276;105737;-53
2023/08/17 03:11:37;;;;;;;13.70;12.20;;;;;;;23.62;73.40;100773.64;102775;276;114579;-53
2023/08/17 03:14:17;;;;;;;14.10;12.60;;;;;;;23.59;73.52;100775.42;102288;276;461742;-55
2023/08/17 03:16:56;;;;;;;14.40;12.80;;;;;;;23.59;73.48;100775.59;102739;275;97956;-55
2023/08/17 03:19:39;;;;;;;14.00;12.50;;;;;;;23.60;73.54;100781.50;102732;276;122480;-55
2023/08/17 03:22:20;;;;;;;14.50;13.00;;;;;;;23.59;73.56;100783.59;102784;276;104906;-57
2023/08/17 03:25:00;;;;;;;14.90;12.50;;;;;;;23.56;73.38;100786.82;102738;276;114188;-57
2023/08/17 03:27:38;;;;;;;14.10;12.70;;;;;;;23.52;73.63;100787.58;102816;276;93353;-54
2023/08/17 03:30:15;;;;;;;15.80;13.50;;;;;;;23.48;73.81;100793.00;102749;276;96809;-55
2023/08/17 03:32:56;;;;;;;18.70;13.30;;;;;;;23.46;73.77;100796.64;102759;276;121000;-53
2023/08/17 03:35:39;;;;;;;15.80;13.20;;;;;;;23.42;74.08;100794.35;102772;276;105868;-53
2023/08/17 03:38:20;;;;;;;13.90;12.40;;;;;;;23.39;74.31;100798.84;102763;276;114568;-54
2023/08/17 03:41:04;;;;;;;17.50;13.60;;;;;;;23.36;74.60;100802.92;102743;276;97385;-56
2023/08/17 03:43:45;;;;;;;15.40;12.50;;;;;;;23.40;74.48;100800.27;102754;276;98080;-54
2023/08/17 03:46:27;;;;;;;13.80;12.50;;;;;;;23.44;74.35;100798.27;102760;276;120556;-57
2023/08/17 03:49:03;;;;;;;14.90;13.20;;;;;;;23.48;74.26;100797.52;102806;276;106074;-57
2023/08/17 03:51:42;;;;;;;15.80;11.90;;;;;;;23.49;74.21;100798.24;102909;276;114502;-55
2023/08/17 03:54:18;;;;;;;13.90;11.90;;;;;;;23.51;74.16;100794.41;102748;276;96906;-54
2023/08/17 03:56:57;;;;;;;13.60;12.20;;;;;;;23.55;74.13;100799.35;102783;276;97640;-54
2023/08/17 03:59:34;;;;;;;13.20;11.30;;;;;;;23.60;73.99;100800.04;102713;276;121179;-54
2023/08/17 04:02:14;;;;;;;13.30;11.90;;;;;;;23.64;73.85;100808.73;102795;276;105047;-54
2023/08/17 04:04:55;;;;;;;13.30;12.00;;;;;;;23.66;73.76;100804.67;102756;276;114447;-54
2023/08/17 04:07:37;;;;;;;13.10;11.90;;;;;;;23.66;73.73;100806.05;102774;276;96691;-53
2023/08/17 04:10:15;;;;;;;13.50;11.90;;;;;;;23.70;73.56;100800.61;102732;276;98335;-53
2023/08/17 04:12:53;;;;;;;13.50;12.00;;;;;;;23.73;73.44;100800.08;102780;276;120889;-53
2023/08/17 04:15:29;;;;;;;13.40;12.00;;;;;;;23.77;73.32;100808.77;102768;276;105301;-53
2023/08/17 04:18:16;;;;;;;12.20;10.90;;;;;;;23.80;73.43;100811.04;102734;276;114403;-53
2023/08/17 04:20:56;;;;;;;14.50;11.50;;;;;;;23.84;73.31;100813.23;102720;276;96397;-53
2023/08/17 04:23:34;;;;;;;12.90;11.70;;;;;;;23.90;73.21;100808.80;102897;276;98208;-57
2023/08/17 04:26:12;;;;;;;14.60;11.40;;;;;;;23.95;73.17;100809.42;102840;276;121154;-55
2023/08/17 04:28:48;;;;;;;12.20;11.00;;;;;;;24.02;72.92;100815.92;102744;276;105488;-54
2023/08/17 04:31:27;;;;;;;12.70;11.10;;;;;;;24.07;72.85;100812.76;102785;276;114178;-57
2023/08/17 04:34:04;;;;;;;13.30;11.90;;;;;;;24.14;72.69;100810.27;102794;276;94619;-57
2023/08/17 04:36:43;;;;;;;12.90;11.20;;;;;;;24.18;72.61;100807.80;102834;276;97776;-53
2023/08/17 04:39:27;;;;;;;12.80;11.60;;;;;;;24.22;72.36;100808.27;102741;276;120572;-53
2023/08/17 04:42:06;;;;;;;11.70;10.60;;;;;;;24.27;72.15;100807.46;102793;276;105635;-57
2023/08/17 04:44:44;;;;;;;12.30;11.10;;;;;;;24.34;71.86;100808.44;102867;276;114999;-57
2023/08/17 04:47:19;;;;;;;12.20;11.00;;;;;;;24.46;71.59;100807.11;102936;276;93085;-54
2023/08/17 04:49:55;;;;;;;13.30;10.90;;;;;;;24.67;71.40;100810.82;102817;276;97439;-52
2023/08/17 04:52:32;;;;;;;11.10;9.90;;;;;;;25.03;70.91;100807.66;102865;276;121135;-54
2023/08/17 04:55:10;;;;;;;11.30;10.20;;;;;;;25.57;70.15;100806.19;102804;276;105431;-53
2023/08/17 04:57:51;;;;;;;12.60;9.80;;;;;;;25.86;69.30;100806.33;102823;276;114670;-57
2023/08/17 05:00:30;;;;;;;10.80;9.70;;;;;;;25.84;68.45;100811.04;102812;276;94423;-57
2023/08/17 05:03:08;;;;;;;12.10;10.20;;;;;;;25.80;68.04;100808.73;102796;276;97944;-55
2023/08/17 05:05:44;;;;;;;13.40;10.00;;;;;;;25.78;67.68;100808.45;102778;276;121506;-54
2023/08/17 05:08:19;;;;;;;10.70;9.20;;;;;;;25.83;67.38;100810.92;102834;276;105461;-56
2023/08/17 05:10:59;;;;;;;10.50;9.50;;;;;;;25.92;67.20;100812.29;102787;276;114714;-57
2023/08/17 05:13:39;;;;;;;11.90;10.70;;;;;;;25.99;66.98;100820.67;102808;276;94110;-55
2023/08/17 05:16:14;;;;;;;11.70;9.20;;;;;;;26.03;66.52;100818.24;102866;276;98476;-56
2023/08/17 05:18:52;;;;;;;12.30;8.90;;;;;;;26.09;66.06;100817.05;102737;276;120852;-55
2023/08/17 05:21:29;;;;;;;9.70;8.20;;;;;;;26.12;65.35;100816.61;102765;276;105602;-57
2023/08/17 05:24:04;;;;;;;9.90;8.80;;;;;;;26.17;64.80;100819.71;102832;276;114686;-57
2023/08/17 05:26:42;;;;;;;9.00;8.10;;;;;;;26.13;64.46;100816.74;102830;276;93623;-53
2023/08/17 05:29:19;;;;;;;10.70;8.60;;;;;;;26.10;63.97;100818.82;102774;276;97344;-53
2023/08/17 05:31:55;;;;;;;9.00;7.50;;;;;;;26.06;63.76;100816.63;102750;276;121517;-55
2023/08/17 05:34:34;;;;;;;10.40;8.10;;;;;;;26.01;63.46;100819.13;102530;276;106634;-54
2023/08/17 05:37:16;;;;;;;10.90;8.60;;;;;;;25.99;63.35;100819.69;102729;276;115106;-53
2023/08/17 05:39:57;;;;;;;9.00;7.90;;;;;;;25.93;63.15;100816.77;102717;276;94898;-53
2023/08/17 05:42:33;;;;;;;;;;;;;;;25.82;63.00;100815.91;102799;276;98189;-53
2023/08/17 05:45:10;;;;;;;7.90;7.10;;;;;;;25.77;62.97;100812.77;102741;276;120222;-53
2023/08/17 05:47:48;;;;;;;9.40;7.60;;;;;;;25.71;62.82;100811.77;102838;276;106072;-57
2023/08/17 05:50:30;;;;;;;8.60;7.80;;;;;;;25.68;62.81;100809.46;102797;276;115022;-58
2023/08/17 05:53:11;;;;;;;7.60;6.70;;;;;;;25.68;62.75;100801.92;102737;276;94580;-54
2023/08/17 05:55:54;;;;;;;9.90;6.70;;;;;;;25.68;62.80;100798.83;102723;276;97615;-53
2023/08/17 05:58:32;;;;;;;9.30;7.50;;;;;;;25.67;62.57;100800.27;102716;276;119853;-55
2023/08/17 06:01:16;;;;;;;9.30;7.40;;;;;;;25.69;62.29;100796.44;102763;276;106209;-56
2023/08/17 06:03:53;;;;;;;8.50;7.30;;;;;;;25.71;62.33;100797.38;102790;276;114814;-55
2023/08/17 06:06:32;;;;;;;10.90;8.00;;;;;;;25.72;62.32;100795.71;102824;276;94738;-54
2023/08/17 06:09:20;;;;;;;10.00;7.30;;;;;;;25.75;62.15;100796.88;102758;276;98142;-55
2023/08/17 06:11:58;;;;;;;10.70;7.70;;;;;;;25.78;62.27;100796.88;102809;276;120602;-58
2023/08/17 06:14:34;;;;;;;8.70;6.80;;;;;;;25.82;62.08;100799.20;102748;276;104664;-58
2023/08/17 06:17:17;;;;;;;10.20;7.20;;;;;;;25.91;61.93;100797.89;102755;276;114855;-60
2023/08/17 06:19:54;;;;;;;9.60;7.20;;;;;;;26.01;61.89;100801.73;102727;276;94160;-61
2023/08/17 06:22:32;;;;;;;9.80;7.00;;;;;;;26.08;61.72;100802.33;102764;276;97115;-63
2023/08/17 06:25:11;;;;;;;9.90;6.80;;;;;;;26.19;61.28;100801.16;102715;276;120398;-64
2023/08/17 06:27:50;;;;;;;8.70;7.20;;;;;;;26.35;61.13;100803.97;102808;276;106011;-61
2023/08/17 06:30:28;;;;;;;10.00;7.10;;;;;;;26.57;60.97;100808.85;102764;276;114140;-61
2023/08/17 06:33:04;;;;;;;9.50;7.10;;;;;;;26.72;60.33;100804.40;102718;276;95661;-63
2023/08/17 06:35:46;;;;;;;8.40;6.70;;;;;;;26.84;60.12;100809.02;102761;276;97237;-63
2023/08/17 06:38:29;;;;;;;9.40;6.80;;;;;;;27.00;60.17;100811.56;102781;276;119531;-63
2023/08/17 06:41:09;;;;;;;8.00;6.60;;;;;;;27.14;59.85;100810.63;102816;276;106045;-63
2023/08/17 06:43:49;;;;;;;12.20;7.20;;;;;;;27.21;59.33;100816.63;102783;276;113726;-63
2023/08/17 06:46:30;;;;;;;11.70;7.10;;;;;;;27.32;59.15;100821.38;102804;276;94927;-63
2023/08/17 06:49:08;;;;;;;9.90;6.70;;;;;;;27.43;58.63;100821.91;102796;276;96889;-55
2023/08/17 06:51:46;;;;;;;9.50;6.70;;;;;;;27.54;58.29;100824.20;102562;276;120641;-55
2023/08/17 06:54:25;;;;;;;9.30;6.00;;;;;;;27.66;58.19;100819.77;102798;276;104811;-54
2023/08/17 06:57:04;;;;;;;8.50;6.30;;;;;;;27.74;57.78;100820.57;102800;276;114337;-57
2023/08/17 06:59:45;;;;;;;10.50;6.60;;;;;;;27.84;57.55;100823.88;102880;276;94344;-57
2023/08/17 07:02:27;;;;;;;8.80;6.60;;;;;;;27.99;57.09;100825.88;102850;276;97554;-53
2023/08/17 07:05:05;;;;;;;10.20;6.90;;;;;;;28.21;57.08;100828.81;102789;276;120382;-53
2023/08/17 07:07:44;;;;;;;7.30;6.50;;;;;;;28.46;56.81;100833.02;102800;276;106016;-55
2023/08/17 07:10:26;;;;;;;15.00;7.90;;;;;;;28.77;56.35;100835.30;102800;276;114537;-54
2023/08/17 07:13:04;;;;;;;13.60;7.70;;;;;;;29.04;55.74;100835.41;102788;276;94410;-52
2023/08/17 07:15:39;;;;;;;7.30;6.60;;;;;;;29.18;55.07;100835.23;102777;276;98656;-53
2023/08/17 07:18:21;;;;;;;8.40;6.70;;;;;;;29.26;54.68;100834.05;102560;276;121705;-52
2023/08/17 07:21:03;;;;;;;11.10;7.50;;;;;;;29.33;54.28;100837.39;102798;276;105689;-52
2023/08/17 07:23:47;;;;;;;9.10;7.20;;;;;;;29.36;53.88;100840.45;102790;276;114155;-53
2023/08/17 07:26:25;;;;;;;9.20;7.40;;;;;;;29.39;53.55;100839.90;102791;276;95254;-54
2023/08/17 07:29:02;;;;;;;7.80;6.60;;;;;;;29.57;53.42;100833.02;102768;276;97197;-54
2023/08/17 07:31:46;;;;;;;8.40;6.60;;;;;;;30.01;53.20;100827.73;102838;276;119118;-56
2023/08/17 07:34:25;;;;;;;8.40;7.30;;;;;;;30.45;52.81;100828.16;102834;276;105091;-57
2023/08/17 07:37:05;;;;;;;10.70;7.00;;;;;;;30.94;52.26;100832.17;102832;276;114355;-52
2023/08/17 07:39:38;;;;;;;11.00;7.20;;;;;;;31.20;51.43;100828.83;102752;276;94002;-54
2023/08/17 07:42:12;;;;;;;10.60;7.30;;;;;;;30.97;50.48;100830.80;102832;264;98103;-52
2023/08/17 07:44:51;;;;;;;12.50;7.00;;;;;;;30.64;50.50;100833.27;102777;276;119584;-52
2023/08/17 07:47:26;;;;;;;11.00;6.80;;;;;;;30.27;50.52;100826.23;102832;276;105829;-53
2023/08/17 07:50:05;;;;;;;10.90;7.10;;;;;;;29.97;50.92;100822.91;102724;276;114978;-53
2023/08/17 07:52:45;;;;;;;9.00;6.90;;;;;;;29.69;51.18;100825.72;102604;276;94173;-54
2023/08/17 07:55:21;;;;;;;9.60;7.00;;;;;;;29.38;51.84;100829.11;102747;276;98143;-54
2023/08/17 07:57:56;;;;;;;10.20;7.10;;;;;;;29.23;51.98;100825.67;102737;277;119675;-57
2023/08/17 08:00:31;;;;;;;9.00;7.30;;;;;;;29.23;52.71;100826.29;102871;276;105878;-56
2023/08/17 08:03:08;;;;;;;11.50;7.20;;;;;;;29.32;53.07;100828.38;102788;276;114706;-53
2023/08/17 08:05:44;;;;;;;9.10;7.70;;;;;;;29.44;52.85;100821.27;102775;276;94238;-53
2023/08/17 08:08:23;;;;;;;10.60;7.10;;;;;;;29.60;52.70;100817.53;102778;276;98432;-55
2023/08/17 08:11:01;;;;;;;7.60;6.70;;;;;;;29.83;52.53;100823.67;102768;276;120162;-55
2023/08/17 08:13:38;;;;;;;11.20;7.20;;;;;;;30.02;52.29;100826.27;102778;276;106226;-52
2023/08/17 08:16:16;;;;;;;9.20;7.30;;;;;;;30.12;51.90;100824.13;102759;276;114799;-54
2023/08/17 08:18:54;;;;;;;9.20;6.70;;;;;;;30.30;51.81;100821.69;102750;276;93885;-55
2023/08/17 08:21:30;;;;;;;12.30;7.90;;;;;;;30.41;51.46;100821.60;102757;276;97984;-53
2023/08/17 08:24:08;;;;;;;9.20;7.50;;;;;;;30.41;51.01;100822.67;102707;276;120261;-54
2023/08/17 08:26:48;;;;;;;10.80;7.70;;;;;;;30.43;51.30;100826.25;102784;276;106340;-54
2023/08/17 08:29:26;;;;;;;11.00;8.80;;;;;;;30.47;50.99;100826.11;102723;276;115317;-54
2023/08/17 08:32:03;;;;;;;11.30;8.10;;;;;;;30.46;50.61;100831.26;102760;276;93969;-55
2023/08/17 08:34:40;;;;;;;8.90;8.00;;;;;;;30.53;50.39;100834.89;102755;276;95841;-53
2023/08/17 08:37:16;;;;;;;9.90;7.40;;;;;;;30.52;49.89;100834.77;102840;276;120654;-57
2023/08/17 08:39:57;;;;;;;9.20;7.50;;;;;;;30.57;49.88;100833.09;102806;276;105645;-57
2023/08/17 08:42:33;;;;;;;8.20;7.20;;;;;;;30.65;49.74;100835.02;102820;276;114528;-55
2023/08/17 08:45:09;;;;;;;12.00;7.40;;;;;;;30.94;49.97;100829.31;102759;276;94713;-55
2023/08/17 08:47:47;;;;;;;7.90;7.10;;;;;;;31.29;49.33;100829.56;102814;276;98080;-54
2023/08/17 08:50:32;;;;;;;12.10;7.30;;;;;;;31.89;49.14;100829.02;102811;276;119335;-56
2023/08/17 08:53:15;;;;;;;8.90;7.40;;;;;;;32.65;48.35;100825.19;102869;276;105943;-54
2023/08/17 08:56:01;;;;;;;10.50;7.50;;;;;;;33.39;47.58;100819.65;102791;276;115060;-54
2023/08/17 08:58:41;;;;;;;9.10;6.80;;;;;;;33.94;46.64;100818.92;102876;276;94246;-56
2023/08/17 09:01:22;;;;;;;11.20;7.30;;;;;;;34.76;45.73;100821.64;102814;276;97440;-53
2023/08/17 09:04:02;;;;;;;9.10;7.20;;;;;;;35.65;44.95;100824.69;102743;276;119744;-53
2023/08/17 09:06:45;;;;;;;9.90;7.50;;;;;;;36.46;43.62;100824.86;102785;276;105691;-58
2023/08/17 09:09:23;;;;;;;8.70;7.20;;;;;;;36.98;41.68;100827.45;102775;276;113924;-55
2023/08/17 09:12:05;;;;;;;11.10;6.70;;;;;;;37.22;40.80;100826.73;102817;276;93847;-55
2023/08/17 09:14:42;;;;;;;9.50;7.00;;;;;;;37.49;40.11;100825.63;102721;276;97242;-54
2023/08/17 09:17:27;;;;;;;8.40;7.10;;;;;;;37.49;38.98;100823.83;102517;278;120382;-53
2023/08/17 09:20:07;;;;;;;9.80;7.00;;;;;;;37.49;38.68;100822.89;102741;276;104615;-53
2023/08/17 09:22:47;;;;;;;10.50;6.50;;;;;;;37.46;38.24;100823.84;102717;276;114553;-54
2023/08/17 09:25:30;;;;;;;7.70;6.80;;;;;;;37.32;38.09;100819.61;102716;276;93880;-54
2023/08/17 09:28:18;;;;;;;8.60;6.60;;;;;;;37.09;38.14;100819.98;102835;276;97871;-57
2023/08/17 09:31:06;;;;;;;7.80;6.70;;;;;;;36.75;37.89;100821.23;102819;276;120273;-56
2023/08/17 09:33:49;;;;;;;9.20;7.40;;;;;;;36.40;38.28;100820.57;102713;277;105191;-57
2023/08/17 09:36:31;;;;;;;10.70;6.90;;;;;;;36.02;37.80;100823.99;102643;277;113939;-54
2023/08/17 09:39:11;;;;;;;7.80;6.70;;;;;;;35.93;38.60;100821.05;102582;277;94756;-53
2023/08/17 09:41:51;;;;;;;7.90;6.80;;;;;;;35.76;38.68;100818.36;102612;277;97720;-52
2023/08/17 09:44:39;;;;;;;9.20;7.10;;;;;;;35.64;38.72;100818.08;102592;278;121294;-53
2023/08/17 09:47:21;;;;;;;9.30;7.10;;;;;;;35.49;38.78;100815.75;102625;277;104619;-54
2023/08/17 09:50:00;;;;;;;8.10;7.30;;;;;;;35.39;38.77;100811.62;102600;277;113648;-54
2023/08/17 09:52:39;;;;;;;8.50;7.60;;;;;;;35.29;38.86;100808.83;102631;277;94437;-54
2023/08/17 09:55:16;;;;;;;13.40;7.80;;;;;;;35.13;38.59;100803.55;102606;278;97857;-54
2023/08/17 09:57:57;;;;;;;8.70;7.30;;;;;;;35.00;38.89;100805.90;102588;277;120471;-53
2023/08/17 10:00:34;;;;;;;8.60;6.50;;;;;;;35.06;38.97;100811.27;102594;277;103662;-52
2023/08/17 10:03:11;;;;;;;15.40;10.40;;;;;;;35.13;38.98;100809.31;102596;277;115113;-53
2023/08/17 10:05:52;;;;;;;7.70;6.20;;;;;;;35.16;38.46;100811.11;102644;277;94307;-52
2023/08/17 10:08:34;;;;;;;9.10;6.10;;;;;;;35.09;38.22;100807.80;102703;278;97592;-56
2023/08/17 10:11:20;;;;;;;7.50;6.40;;;;;;;35.21;38.54;100809.07;102694;277;119819;-54
2023/08/17 10:14:05;;;;;;;9.50;6.40;;;;;;;35.27;38.32;100806.73;102620;277;105310;-52
2023/08/17 10:16:53;;;;;;;9.80;6.40;;;;;;;35.19;38.12;100803.38;102588;277;113445;-57
2023/08/17 10:19:40;;;;;;;10.90;6.70;;;;;;;35.15;38.44;100801.13;102691;277;94086;-57
2023/08/17 10:22:21;;;;;;;10.30;7.40;;;;;;;35.12;38.51;100801.98;102712;277;96861;-53
2023/08/17 10:24:59;;;;;;;8.00;6.60;;;;;;;35.05;38.17;100801.77;102607;277;120222;-53
2023/08/17 10:27:38;;;;;;;10.80;7.30;;;;;;;35.06;37.85;100804.75;102671;277;104255;-56
2023/08/17 10:30:19;;;;;;;8.00;5.50;;;;;;;35.14;37.62;100804.41;102646;277;113619;-57
2023/08/17 10:32:54;;;;;;;6.10;5.50;;;;;;;35.21;37.06;100798.96;102683;277;93192;-57
2023/08/17 10:35:40;;;;;;;6.60;5.50;;;;;;;35.28;36.47;100794.96;102637;277;97110;-57
2023/08/17 10:38:22;;;;;;;8.70;5.70;;;;;;;35.24;36.22;100797.61;102562;277;119484;-53
2023/08/17 10:41:16;;;;;;;6.80;5.90;;;;;;;35.22;36.14;100798.04;102591;277;105141;-52
2023/08/17 10:44:07;;;;;;;6.40;5.80;;;;;;;35.27;36.68;100801.26;102469;278;114166;-52
2023/08/17 10:46:43;;;;;;;9.00;5.30;;;;;;;35.25;36.50;100790.92;102663;277;95356;-54
2023/08/17 10:49:37;;;;;;;7.10;5.20;;;;;;;35.29;36.12;100788.83;102629;277;96229;-55
2023/08/17 10:52:14;;;;;;;7.00;4.80;;;;;;;35.31;35.47;100790.17;102607;277;120220;-54
2023/08/17 10:54:56;;;;;;;5.10;4.50;;;;;;;35.29;35.31;100791.05;102636;277;105326;-56
2023/08/17 10:57:41;;;;;;;5.30;4.80;;;;;;;35.21;34.72;100789.64;102643;277;113815;-59
2023/08/17 11:00:26;;;;;;;8.10;5.30;;;;;;;35.15;34.60;100791.02;102624;277;94439;-59
2023/08/17 11:03:05;;;;;;;5.40;4.60;;;;;;;35.13;34.95;100788.45;102674;277;98366;-59
2023/08/17 11:05:54;;;;;;;5.80;4.50;;;;;;;35.08;34.26;100785.91;102658;277;120206;-59
2023/08/17 11:08:35;;;;;;;10.30;5.10;;;;;;;34.92;34.38;100785.31;102650;278;104204;-55
2023/08/17 11:11:24;;;;;;;4.90;4.50;;;;;;;34.93;34.43;100781.23;102583;277;114806;-54
2023/08/17 11:14:00;;;;;;;6.30;4.70;;;;;;;35.00;34.59;100776.12;102027;277;730474;-57
2023/08/17 11:16:48;;;;;;;6.50;4.80;;;;;;;35.00;34.43;100775.10;102567;277;97632;-52
2023/08/17 11:19:29;;;;;;;5.20;4.50;;;;;;;35.03;34.55;100778.17;102577;277;119008;-52
2023/08/17 11:22:08;;;;;;;5.50;3.60;;;;;;;35.02;33.72;100773.81;102605;277;106226;-57
2023/08/17 11:24:49;;;;;;;4.70;3.70;;;;;;;34.95;33.37;100765.44;102667;277;114510;-56
2023/08/17 11:27:26;;;;;;;5.10;4.30;;;;;;;35.01;33.54;100765.83;102652;277;93811;-58
2023/08/17 11:30:04;;;;;;;4.40;3.40;;;;;;;35.13;33.58;100757.86;102656;277;97170;-56
2023/08/17 11:32:41;;;;;;;5.60;4.20;;;;;;;35.24;33.25;100768.17;102636;277;120384;-53
2023/08/17 11:35:18;;;;;;;3.90;3.50;;;;;;;35.24;32.96;100766.41;102634;277;105530;-52
2023/08/17 11:37:52;;;;;;;4.70;3.90;;;;;;;35.24;33.13;100766.34;102648;277;114504;-54
2023/08/17 11:40:30;;;;;;;5.20;3.70;;;;;;;35.24;33.09;100767.10;102608;277;94696;-53
2023/08/17 11:43:12;;;;;;;4.40;3.80;;;;;;;35.22;32.93;100763.17;102618;277;97645;-54
2023/08/17 11:45:52;;;;;;;5.00;4.00;;;;;;;35.25;32.90;100763.52;102543;277;120277;-54
2023/08/17 11:48:38;;;;;;;5.30;3.20;;;;;;;35.23;32.29;100764.67;102620;277;106061;-55
2023/08/17 11:51:13;;;;;;;5.30;3.50;;;;;;;35.19;32.24;100760.58;102622;277;114397;-54
2023/08/17 11:53:51;;;;;;;7.10;3.80;;;;;;;35.21;32.10;100762.27;102609;277;93298;-54
2023/08/17 11:56:30;;;;;;;4.40;3.20;;;;;;;35.23;31.85;100755.93;102604;277;96672;-56
2023/08/17 11:59:18;;;;;;;5.90;3.30;;;;;;;35.26;31.75;100760.70;102678;277;120612;-62
2023/08/17 12:02:02;;;;;;;6.00;3.50;;;;;;;35.29;31.42;100753.34;102625;277;105618;-53
2023/08/17 12:04:40;;;;;;;3.40;2.70;;;;;;;35.29;31.04;100753.02;102587;277;114930;-55
2023/08/17 12:07:19;;;;;;;3.80;2.70;;;;;;;35.36;30.48;100751.52;102603;277;94402;-57
2023/08/17 12:09:58;;;;;;;3.80;2.20;;;;;;;35.52;29.98;100759.08;102615;277;98555;-56
2023/08/17 12:12:45;;;;;;;2.70;2.00;;;;;;;35.65;29.65;100748.71;102626;277;121921;-61